Time;durP1;ratioP1;P1;durP2;ratioP2;P2;SDS_P1;SDS_P2;PMS_P1;PMS_P2;Temp;Humidity;BMP_temperature;BMP_pressure;BME280_temperature;BME280_humidity;BME280_pressure;Samples;Min_cycle;Max_cycle;Signal;HPM_P1;HPM_P2
2023/12/31 00:00:32;;;;;;;8.10;4.13;;;8.30;99.90;;;;;;5018587;28;20054;-78
2023/12/31 00:02:58;;;;;;;8.38;3.97;;;8.30;99.90;;;;;;5018211;28;20385;-78
2023/12/31 00:05:23;;;;;;;6.22;4.15;;;8.30;99.90;;;;;;5017920;28;20041;-75
2023/12/31 00:07:49;;;;;;;7.00;3.88;;;8.30;99.90;;;;;;5054830;28;20136;-75
2023/12/31 00:10:15;;;;;;;6.38;3.88;;;8.30;99.90;;;;;;5017812;28;20477;-75
2023/12/31 00:12:41;;;;;;;6.55;3.90;;;8.30;99.90;;;;;;5018408;28;20131;-75
2023/12/31 00:15:06;;;;;;;6.95;3.80;;;8.30;99.90;;;;;;5014765;28;20049;-77
2023/12/31 00:17:32;;;;;;;5.72;3.75;;;8.30;99.90;;;;;;5012283;28;20033;-76
2023/12/31 00:19:58;;;;;;;7.85;3.78;;;8.40;99.90;;;;;;5017703;28;20504;-75
2023/12/31 00:22:23;;;;;;;5.80;3.47;;;8.40;99.90;;;;;;5017978;28;20045;-76
2023/12/31 00:24:54;;;;;;;5.93;3.40;;;8.40;99.90;;;;;;5011578;28;20051;-76
2023/12/31 00:27:20;;;;;;;7.10;3.58;;;8.40;99.90;;;;;;5010628;28;20049;-76
2023/12/31 00:29:46;;;;;;;6.85;3.67;;;8.40;99.90;;;;;;5009931;28;20080;-76
2023/12/31 00:32:12;;;;;;;5.28;2.95;;;8.50;99.90;;;;;;5010454;28;20120;-76
2023/12/31 00:34:37;;;;;;;4.85;3.35;;;8.50;99.90;;;;;;5022486;28;20049;-76
2023/12/31 00:37:03;;;;;;;7.22;3.40;;;8.50;99.90;;;;;;5024910;28;20037;-76
2023/12/31 00:39:29;;;;;;;5.53;3.50;;;8.50;99.90;;;;;;5015510;28;20064;-76
2023/12/31 00:41:55;;;;;;;5.07;3.17;;;8.50;99.90;;;;;;5012775;28;20046;-76
2023/12/31 00:44:21;;;;;;;6.30;3.42;;;8.40;99.90;;;;;;5019488;28;20068;-76
2023/12/31 00:46:46;;;;;;;5.03;3.17;;;8.40;99.90;;;;;;5013967;28;20129;-76
2023/12/31 00:49:12;;;;;;;6.55;3.53;;;8.40;99.90;;;;;;5018366;28;20041;-76
2023/12/31 00:51:37;;;;;;;6.55;3.38;;;8.40;99.90;;;;;;5023996;28;20095;-76
2023/12/31 00:54:03;;;;;;;6.63;3.55;;;8.40;99.90;;;;;;5023387;28;20037;-76
2023/12/31 00:56:29;;;;;;;6.88;3.50;;;8.40;99.90;;;;;;5018475;28;20049;-76
2023/12/31 00:58:54;;;;;;;6.25;3.28;;;8.40;99.90;;;;;;5021306;28;20444;-76
2023/12/31 01:01:20;;;;;;;4.80;2.20;;;8.40;99.90;;;;;;5019690;28;20042;-76
2023/12/31 01:03:46;;;;;;;5.30;3.30;;;8.40;99.90;;;;;;5015226;28;20067;-76
2023/12/31 01:06:12;;;;;;;5.32;3.38;;;8.30;99.90;;;;;;5028040;28;20096;-76
2023/12/31 01:08:38;;;;;;;4.75;3.20;;;8.40;99.90;;;;;;5016440;28;20081;-76
2023/12/31 01:11:03;;;;;;;5.35;3.50;;;8.40;99.90;;;;;;5009786;28;20095;-76
2023/12/31 01:13:30;;;;;;;7.75;3.55;;;8.30;99.90;;;;;;5017142;28;20046;-76
2023/12/31 01:15:56;;;;;;;4.00;2.20;;;8.40;99.90;;;;;;5009289;28;20054;-76
2023/12/31 01:18:21;;;;;;;5.38;3.00;;;8.30;99.90;;;;;;5008169;28;20103;-76
2023/12/31 01:20:47;;;;;;;4.78;3.08;;;8.20;99.90;;;;;;5019707;28;20045;-76
2023/12/31 01:23:12;;;;;;;4.85;3.00;;;8.30;99.90;;;;;;5017477;28;20045;-76
2023/12/31 01:25:39;;;;;;;5.25;2.75;;;8.20;99.90;;;;;;5018471;28;20417;-76
2023/12/31 01:28:05;;;;;;;7.32;3.08;;;8.20;99.90;;;;;;5027331;28;20092;-76
2023/12/31 01:30:31;;;;;;;5.15;2.90;;;8.20;99.90;;;;;;5029662;28;20046;-76
2023/12/31 01:32:56;;;;;;;3.33;1.80;;;8.10;99.90;;;;;;5049274;28;20371;-76
2023/12/31 01:35:22;;;;;;;7.15;3.00;;;8.10;99.90;;;;;;5028253;28;20124;-76
2023/12/31 01:37:47;;;;;;;5.28;2.95;;;8.00;99.90;;;;;;5032253;28;20041;-76
2023/12/31 01:40:13;;;;;;;6.47;3.67;;;8.00;99.90;;;;;;5013474;28;20083;-76
2023/12/31 01:42:39;;;;;;;5.47;3.30;;;8.00;99.90;;;;;;5024069;28;20076;-76
2023/12/31 01:45:05;;;;;;;5.82;3.58;;;8.00;99.90;;;;;;5019316;28;20056;-76
2023/12/31 01:47:32;;;;;;;5.15;3.28;;;7.90;99.90;;;;;;5022057;28;20103;-76
2023/12/31 01:50:00;;;;;;;6.18;3.15;;;7.90;99.90;;;;;;5027915;28;20045;-76
2023/12/31 01:52:26;;;;;;;;;;;7.90;99.90;;;;;;5032155;28;20424;-76
2023/12/31 01:54:53;;;;;;;4.97;3.35;;;7.80;99.90;;;;;;5014966;28;19940;-75
2023/12/31 01:57:23;;;;;;;6.05;3.25;;;7.80;99.90;;;;;;5017048;28;20236;-75
2023/12/31 01:59:50;;;;;;;6.25;3.63;;;7.80;99.90;;;;;;5049549;28;20044;-76
2023/12/31 02:02:16;;;;;;;5.57;3.40;;;7.80;99.90;;;;;;5021766;28;20049;-76
2023/12/31 02:04:42;;;;;;;4.95;3.38;;;7.90;99.90;;;;;;5058760;28;20072;-76
2023/12/31 02:07:07;;;;;;;4.43;3.10;;;8.00;99.90;;;;;;5055888;28;20069;-75
2023/12/31 02:09:33;;;;;;;4.32;3.00;;;7.90;99.90;;;;;;5025612;28;20075;-76
2023/12/31 02:11:59;;;;;;;4.60;2.85;;;8.00;99.90;;;;;;5019368;28;20033;-76
2023/12/31 02:14:25;;;;;;;4.32;2.78;;;8.00;99.90;;;;;;5036034;28;20576;-75
2023/12/31 02:16:51;;;;;;;4.22;2.42;;;8.00;99.90;;;;;;5022527;28;20029;-76
2023/12/31 02:19:16;;;;;;;4.57;2.72;;;8.10;99.90;;;;;;5025480;28;20048;-76
2023/12/31 02:21:42;;;;;;;2.13;1.60;;;8.00;99.90;;;;;;5020365;28;20508;-76
2023/12/31 02:24:12;;;;;;;3.67;2.60;;;8.10;99.90;;;;;;5027053;28;20083;-76
2023/12/31 02:26:39;;;;;;;8.30;3.15;;;8.10;99.90;;;;;;5038896;28;20049;-76
2023/12/31 02:29:05;;;;;;;6.97;2.80;;;8.10;99.90;;;;;;5020744;28;20045;-76
2023/12/31 02:31:33;;;;;;;6.10;3.00;;;8.10;99.90;;;;;;5016813;28;20072;-76
2023/12/31 02:33:58;;;;;;;3.80;2.50;;;8.20;99.90;;;;;;5021022;28;20049;-76
2023/12/31 02:36:24;;;;;;;4.60;2.50;;;8.10;99.90;;;;;;5025330;28;22048;-76
2023/12/31 02:38:49;;;;;;;5.63;2.55;;;8.10;99.90;;;;;;5027082;28;20578;-76
2023/12/31 02:41:15;;;;;;;3.78;2.25;;;8.10;99.90;;;;;;5032044;28;20188;-76
2023/12/31 02:43:41;;;;;;;7.70;2.50;;;8.20;99.90;;;;;;5058615;28;20049;-76
2023/12/31 02:46:07;;;;;;;2.65;1.90;;;8.10;99.90;;;;;;5019984;28;20045;-76
2023/12/31 02:48:33;;;;;;;3.00;2.17;;;8.20;99.90;;;;;;5029363;28;20106;-76
2023/12/31 02:50:59;;;;;;;2.95;2.20;;;8.10;99.90;;;;;;5023691;28;20433;-76
2023/12/31 02:53:24;;;;;;;4.30;2.30;;;8.20;99.90;;;;;;5031752;28;20083;-76
2023/12/31 02:55:50;;;;;;;4.63;2.22;;;8.20;99.90;;;;;;5029204;28;20034;-75
2023/12/31 02:58:16;;;;;;;3.83;2.05;;;8.20;99.90;;;;;;5029987;28;20091;-76
2023/12/31 03:00:41;;;;;;;3.67;2.20;;;8.10;99.90;;;;;;5030534;28;20499;-76
2023/12/31 03:03:07;;;;;;;3.78;2.03;;;8.20;99.90;;;;;;5027006;28;20044;-76
2023/12/31 03:05:33;;;;;;;3.45;2.08;;;8.10;99.90;;;;;;5022687;28;20041;-76
2023/12/31 03:07:59;;;;;;;3.63;2.13;;;8.10;99.90;;;;;;5020082;28;20527;-76
2023/12/31 03:10:26;;;;;;;4.68;2.40;;;8.10;99.90;;;;;;5040310;28;20037;-76
2023/12/31 03:12:51;;;;;;;3.23;2.10;;;8.10;99.90;;;;;;5026906;28;20041;-75
2023/12/31 03:15:18;;;;;;;3.33;2.10;;;8.10;99.90;;;;;;5053710;28;20554;-76
2023/12/31 03:17:44;;;;;;;3.53;2.25;;;8.10;99.90;;;;;;5021334;28;20040;-75
2023/12/31 03:20:10;;;;;;;4.50;2.42;;;8.10;99.90;;;;;;5037110;28;20485;-76
2023/12/31 03:22:36;;;;;;;4.43;2.08;;;8.00;99.90;;;;;;5034671;28;20099;-76
2023/12/31 03:25:02;;;;;;;4.63;2.40;;;8.00;99.90;;;;;;5017517;28;20045;-76
2023/12/31 03:27:28;;;;;;;3.72;2.40;;;8.00;99.90;;;;;;5020472;28;20049;-76
2023/12/31 03:29:53;;;;;;;5.03;2.30;;;8.00;99.90;;;;;;5018852;28;20057;-76
2023/12/31 03:32:19;;;;;;;3.75;2.25;;;7.90;99.90;;;;;;5022833;28;20073;-76
2023/12/31 03:34:45;;;;;;;3.67;2.33;;;8.00;99.90;;;;;;5023057;28;20049;-75
2023/12/31 03:37:10;;;;;;;3.30;2.00;;;7.90;99.90;;;;;;5031419;28;20044;-76
2023/12/31 03:39:36;;;;;;;5.63;2.30;;;7.90;99.90;;;;;;5026316;28;20489;-76
2023/12/31 03:42:02;;;;;;;5.40;2.60;;;7.90;99.90;;;;;;5059415;28;20545;-76
2023/12/31 03:44:27;;;;;;;7.47;2.30;;;7.90;99.90;;;;;;5028980;28;20044;-76
2023/12/31 03:46:53;;;;;;;4.50;2.20;;;7.90;99.90;;;;;;5025466;28;20092;-76
2023/12/31 03:49:18;;;;;;;5.38;2.78;;;7.80;99.90;;;;;;5024884;28;20452;-76
2023/12/31 03:51:44;;;;;;;3.92;1.40;;;7.90;99.90;;;;;;5020526;28;20088;-75
2023/12/31 03:54:10;;;;;;;4.65;2.67;;;7.90;99.90;;;;;;5022698;28;20474;-76
2023/12/31 03:56:35;;;;;;;4.45;2.70;;;7.90;99.90;;;;;;5029356;28;20037;-75
2023/12/31 03:59:01;;;;;;;4.60;3.05;;;7.90;99.90;;;;;;5024752;28;20044;-76
2023/12/31 04:01:26;;;;;;;4.97;3.03;;;7.90;99.90;;;;;;5026635;28;20058;-76
2023/12/31 04:03:53;;;;;;;4.53;2.92;;;7.90;99.90;;;;;;5024208;28;20120;-76
2023/12/31 04:06:24;;;;;;;4.22;3.03;;;7.80;99.90;;;;;;5025154;28;20421;-76
2023/12/31 04:08:50;;;;;;;5.53;3.20;;;7.90;99.90;;;;;;5034536;28;20149;-76
2023/12/31 04:11:15;;;;;;;5.53;3.38;;;7.90;99.90;;;;;;5020872;28;21713;-76
2023/12/31 04:13:41;;;;;;;5.18;3.38;;;7.80;99.90;;;;;;5026017;28;20045;-75
2023/12/31 04:16:10;;;;;;;5.10;3.50;;;7.90;99.90;;;;;;5029197;28;20049;-75
2023/12/31 04:18:35;;;;;;;5.95;3.85;;;7.90;99.90;;;;;;5029589;28;20103;-76
2023/12/31 04:21:02;;;;;;;3.38;1.83;;;7.80;99.90;;;;;;5054087;28;20549;-76
2023/12/31 04:23:28;;;;;;;5.10;3.83;;;7.80;99.90;;;;;;5027424;28;20413;-76
2023/12/31 04:25:53;;;;;;;6.20;3.80;;;7.80;99.90;;;;;;5021942;28;20041;-76
2023/12/31 04:28:19;;;;;;;5.93;3.50;;;7.80;99.90;;;;;;5032627;28;20455;-76
2023/12/31 04:30:45;;;;;;;6.65;2.30;;;7.80;99.90;;;;;;5025884;28;20045;-76
2023/12/31 04:33:10;;;;;;;6.50;4.20;;;7.80;99.90;;;;;;5026145;28;20051;-76
2023/12/31 04:35:36;;;;;;;5.18;3.90;;;7.80;99.90;;;;;;5023973;28;20041;-76
2023/12/31 04:38:02;;;;;;;6.18;3.58;;;7.80;99.90;;;;;;5028758;28;20163;-76
2023/12/31 04:40:28;;;;;;;6.05;4.22;;;7.90;99.90;;;;;;5027127;28;20064;-76
2023/12/31 04:42:53;;;;;;;6.53;4.05;;;7.80;99.90;;;;;;5026129;28;20699;-76
2023/12/31 04:45:19;;;;;;;6.10;3.92;;;7.90;99.90;;;;;;5038236;28;20049;-75
2023/12/31 04:47:44;;;;;;;5.47;3.90;;;7.90;99.90;;;;;;5027649;28;20116;-76
2023/12/31 04:50:10;;;;;;;5.53;3.90;;;7.90;99.90;;;;;;5026659;28;20056;-76
2023/12/31 04:52:36;;;;;;;5.85;3.90;;;7.90;99.90;;;;;;5030567;28;20037;-76
2023/12/31 04:55:02;;;;;;;6.60;4.32;;;7.90;99.90;;;;;;5026980;28;20477;-76
2023/12/31 04:57:28;;;;;;;5.95;3.78;;;7.90;99.90;;;;;;5024299;28;20045;-76
2023/12/31 04:59:53;;;;;;;5.30;4.10;;;7.90;99.90;;;;;;5026005;28;20719;-75
2023/12/31 05:02:19;;;;;;;5.15;4.13;;;7.90;99.90;;;;;;5025830;28;20548;-76
2023/12/31 05:04:45;;;;;;;5.57;3.97;;;7.90;99.90;;;;;;5025769;28;20084;-76
2023/12/31 05:07:11;;;;;;;6.35;4.05;;;7.90;99.90;;;;;;5039902;28;20132;-76
2023/12/31 05:09:37;;;;;;;3.60;2.38;;;7.90;99.90;;;;;;5028020;28;20127;-76
2023/12/31 05:12:03;;;;;;;6.13;2.05;;;7.90;99.90;;;;;;5028910;28;20046;-76
2023/12/31 05:14:28;;;;;;;5.70;4.20;;;7.80;99.90;;;;;;5022045;28;20037;-75
2023/12/31 05:16:54;;;;;;;5.85;4.07;;;7.80;99.90;;;;;;5026600;28;20041;-76
2023/12/31 05:19:20;;;;;;;7.50;4.35;;;7.90;99.90;;;;;;5025613;28;20431;-76
2023/12/31 05:21:45;;;;;;;4.65;2.42;;;7.90;99.90;;;;;;5024703;28;20079;-76
2023/12/31 05:24:11;;;;;;;3.80;1.88;;;7.90;99.90;;;;;;5042046;28;20489;-75
2023/12/31 05:26:37;;;;;;;6.07;4.00;;;7.80;99.90;;;;;;5023897;28;20030;-76
2023/12/31 05:29:03;;;;;;;6.18;3.75;;;7.90;99.90;;;;;;5023923;28;20661;-76
2023/12/31 05:31:28;;;;;;;5.00;4.03;;;7.90;99.90;;;;;;5057102;28;20048;-75
2023/12/31 05:33:55;;;;;;;5.72;3.65;;;7.90;99.90;;;;;;5042667;28;20118;-76
2023/12/31 05:36:20;;;;;;;4.57;3.60;;;8.00;99.90;;;;;;5028300;28;20056;-76
2023/12/31 05:38:46;;;;;;;5.40;3.60;;;8.00;99.90;;;;;;5057954;28;20053;-76
2023/12/31 05:41:12;;;;;;;5.85;3.78;;;8.00;99.90;;;;;;5020901;28;20494;-75
2023/12/31 05:43:37;;;;;;;5.97;3.72;;;8.00;99.90;;;;;;5029631;28;20398;-76
2023/12/31 05:46:03;;;;;;;6.65;4.00;;;8.10;99.90;;;;;;5029496;28;20073;-76
2023/12/31 05:48:29;;;;;;;5.93;3.80;;;8.00;99.90;;;;;;5031718;28;20037;-76
2023/12/31 05:50:54;;;;;;;4.43;4.00;;;8.00;99.90;;;;;;5029029;28;20544;-75
2023/12/31 05:53:20;;;;;;;6.60;4.10;;;8.10;99.90;;;;;;5032897;28;20033;-76
2023/12/31 05:55:46;;;;;;;5.15;3.80;;;8.10;99.90;;;;;;5031752;28;20076;-76
2023/12/31 05:58:12;;;;;;;5.50;3.55;;;8.10;99.90;;;;;;5046399;28;20124;-76
2023/12/31 06:00:38;;;;;;;4.00;3.40;;;8.10;99.90;;;;;;5028601;28;20176;-76
2023/12/31 06:03:04;;;;;;;5.45;3.97;;;8.10;99.90;;;;;;5029867;28;20053;-75
2023/12/31 06:05:29;;;;;;;4.32;2.00;;;8.10;99.90;;;;;;5028528;28;20045;-76
2023/12/31 06:07:55;;;;;;;4.78;2.15;;;8.10;99.90;;;;;;5030398;28;20045;-76
2023/12/31 06:10:21;;;;;;;4.65;3.70;;;8.10;99.90;;;;;;5028631;28;20116;-76
2023/12/31 06:12:46;;;;;;;4.90;3.55;;;8.10;99.90;;;;;;5028116;28;20049;-75
2023/12/31 06:15:12;;;;;;;4.20;3.80;;;8.10;99.90;;;;;;5030171;28;20056;-76
2023/12/31 06:17:38;;;;;;;4.05;3.58;;;8.20;99.90;;;;;;5030124;28;20045;-76
2023/12/31 06:20:06;;;;;;;5.67;2.20;;;8.20;99.90;;;;;;5028191;28;20060;-76
2023/12/31 06:22:32;;;;;;;5.43;2.35;;;8.20;99.90;;;;;;5026981;28;21570;-76
2023/12/31 06:24:57;;;;;;;4.35;3.40;;;8.10;99.90;;;;;;5027648;28;20119;-76
2023/12/31 06:27:24;;;;;;;3.60;2.10;;;8.20;99.90;;;;;;5028923;28;20095;-76
2023/12/31 06:29:50;;;;;;;4.82;3.58;;;8.20;99.90;;;;;;5058930;28;20124;-76
2023/12/31 06:32:16;;;;;;;4.22;2.58;;;8.20;99.90;;;;;;5026570;28;20045;-76
2023/12/31 06:34:42;;;;;;;6.75;2.28;;;8.20;99.90;;;;;;5026978;28;20048;-76
2023/12/31 06:37:08;;;;;;;3.67;2.20;;;8.20;99.90;;;;;;5030414;28;20045;-76
2023/12/31 06:39:33;;;;;;;3.70;2.25;;;8.20;99.90;;;;;;5028224;28;20433;-76
2023/12/31 06:41:59;;;;;;;4.38;3.50;;;8.20;99.90;;;;;;5019901;28;20267;-76
2023/12/31 06:44:24;;;;;;;4.75;1.92;;;8.20;99.90;;;;;;5023604;28;20065;-76
2023/12/31 06:46:50;;;;;;;3.17;2.03;;;8.20;99.90;;;;;;5026612;28;20073;-76
2023/12/31 06:49:16;;;;;;;5.10;2.28;;;8.20;99.90;;;;;;5025464;28;20100;-76
2023/12/31 06:51:41;;;;;;;4.15;3.42;;;8.20;99.90;;;;;;5021136;28;20042;-76
2023/12/31 06:54:07;;;;;;;3.53;2.08;;;8.20;99.90;;;;;;5029056;28;20623;-75
2023/12/31 06:56:33;;;;;;;5.07;3.50;;;8.30;99.90;;;;;;5029222;28;20038;-76
2023/12/31 06:58:58;;;;;;;4.72;3.08;;;8.30;99.90;;;;;;5029032;28;20807;-75
2023/12/31 07:01:24;;;;;;;6.97;2.10;;;8.30;99.90;;;;;;5024829;28;20099;-76
2023/12/31 07:03:49;;;;;;;3.58;2.35;;;8.20;99.90;;;;;;5027860;28;20049;-76
2023/12/31 07:06:15;;;;;;;4.25;3.15;;;8.30;99.90;;;;;;5027711;28;20393;-76
2023/12/31 07:08:40;;;;;;;4.30;2.10;;;8.30;99.90;;;;;;5023069;28;20081;-76
2023/12/31 07:11:06;;;;;;;3.42;2.00;;;8.30;99.90;;;;;;5017931;28;20041;-76
2023/12/31 07:13:32;;;;;;;4.38;3.40;;;8.30;99.90;;;;;;5021648;28;20127;-76
2023/12/31 07:15:58;;;;;;;4.80;3.28;;;8.30;99.90;;;;;;5029791;28;20040;-76
2023/12/31 07:18:24;;;;;;;5.30;3.20;;;8.40;99.90;;;;;;5041215;28;20065;-75
2023/12/31 07:20:49;;;;;;;4.82;3.10;;;8.40;99.90;;;;;;5028226;28;20037;-75
2023/12/31 07:23:15;;;;;;;4.75;3.13;;;8.40;99.90;;;;;;5029251;28;20045;-75
2023/12/31 07:25:41;;;;;;;2.95;1.83;;;8.40;99.90;;;;;;5049082;28;20470;-75
2023/12/31 07:28:06;;;;;;;3.30;1.98;;;8.40;99.90;;;;;;5024333;28;20065;-75
2023/12/31 07:30:32;;;;;;;3.70;2.10;;;8.30;99.90;;;;;;5056920;28;20045;-76
2023/12/31 07:32:58;;;;;;;4.15;3.10;;;8.30;99.90;;;;;;5026238;28;20041;-75
2023/12/31 07:35:23;;;;;;;4.85;3.70;;;8.40;99.90;;;;;;5058533;28;20176;-76
2023/12/31 07:37:49;;;;;;;3.53;2.70;;;8.30;99.90;;;;;;5020410;28;20076;-75
2023/12/31 07:40:15;;;;;;;4.72;3.40;;;8.40;99.90;;;;;;5058852;28;20042;-76
2023/12/31 07:42:40;;;;;;;3.90;3.08;;;8.30;99.90;;;;;;5027707;28;20045;-76
2023/12/31 07:45:06;;;;;;;4.30;3.08;;;8.40;99.90;;;;;;5023352;28;20530;-76
2023/12/31 07:47:35;;;;;;;4.85;3.25;;;8.40;99.90;;;;;;5024586;28;20045;-75
2023/12/31 07:50:02;;;;;;;4.95;3.10;;;8.40;99.90;;;;;;5030357;28;20393;-75
2023/12/31 07:52:28;;;;;;;3.55;2.88;;;8.50;99.90;;;;;;5039192;28;21370;-75
2023/12/31 07:54:54;;;;;;;4.05;3.38;;;8.40;99.90;;;;;;5025651;28;20067;-76
2023/12/31 07:57:19;;;;;;;4.50;2.85;;;8.50;99.90;;;;;;5026683;28;20110;-76
2023/12/31 07:59:46;;;;;;;4.25;3.10;;;8.50;99.90;;;;;;5013976;28;20482;-76
2023/12/31 08:02:12;;;;;;;4.00;3.10;;;8.50;99.90;;;;;;5015073;28;20046;-81
2023/12/31 08:04:38;;;;;;;4.43;2.80;;;8.50;99.90;;;;;;5021550;28;20091;-77
2023/12/31 08:07:04;;;;;;;5.38;3.10;;;8.50;99.90;;;;;;5061922;28;20045;-81
2023/12/31 08:09:29;;;;;;;4.95;2.88;;;8.60;99.90;;;;;;5030454;28;20080;-80
2023/12/31 08:11:55;;;;;;;5.38;3.08;;;8.60;99.90;;;;;;5031232;28;20040;-76
2023/12/31 08:14:22;;;;;;;6.05;3.47;;;8.70;99.90;;;;;;5029878;28;20431;-77
2023/12/31 08:16:48;;;;;;;4.45;3.00;;;8.60;99.90;;;;;;5032173;28;20037;-77
2023/12/31 08:19:13;;;;;;;5.78;2.90;;;8.70;99.90;;;;;;5021351;28;20061;-77
2023/12/31 08:21:40;;;;;;;4.25;3.08;;;8.70;99.90;;;;;;5030698;28;20084;-75
2023/12/31 08:24:06;;;;;;;4.38;3.03;;;8.70;99.90;;;;;;5031209;28;20041;-78
2023/12/31 08:26:32;;;;;;;3.65;2.70;;;8.70;99.90;;;;;;5051021;28;20096;-76
2023/12/31 08:28:59;;;;;;;3.10;2.60;;;8.80;99.90;;;;;;5031048;28;20049;-76
2023/12/31 08:31:26;;;;;;;4.68;3.10;;;8.80;99.90;;;;;;5054669;28;20439;-76
2023/12/31 08:33:52;;;;;;;4.65;3.10;;;8.80;99.90;;;;;;5032242;28;20053;-76
2023/12/31 08:36:17;;;;;;;4.32;2.88;;;8.90;99.90;;;;;;5030608;28;20109;-77
2023/12/31 08:38:43;;;;;;;3.92;2.80;;;8.80;99.90;;;;;;5024145;28;20057;-76
2023/12/31 08:41:09;;;;;;;4.10;2.95;;;8.90;99.90;;;;;;5022392;28;20045;-79
2023/12/31 08:43:35;;;;;;;3.72;3.05;;;8.90;99.90;;;;;;5021805;28;20057;-77
2023/12/31 08:46:02;;;;;;;4.90;2.80;;;8.90;99.90;;;;;;5035451;28;20059;-76
2023/12/31 08:48:28;;;;;;;5.13;3.08;;;8.90;99.90;;;;;;5019747;28;20041;-76
2023/12/31 08:50:54;;;;;;;4.45;2.78;;;8.90;99.90;;;;;;5022345;28;20443;-76
2023/12/31 08:53:20;;;;;;;4.25;3.10;;;9.00;99.90;;;;;;5032923;28;20064;-73
2023/12/31 08:55:47;;;;;;;5.32;3.60;;;9.00;99.90;;;;;;5021775;28;20092;-74
2023/12/31 08:58:13;;;;;;;;;;;9.00;99.90;;;;;;5024456;28;20060;-74
2023/12/31 09:00:39;;;;;;;3.85;3.03;;;9.00;99.90;;;;;;5049852;28;20335;-74
2023/12/31 09:03:05;;;;;;;3.95;3.10;;;8.90;99.90;;;;;;5023937;28;20404;-74
2023/12/31 09:05:30;;;;;;;4.25;3.00;;;9.00;99.90;;;;;;5022584;28;20041;-74
2023/12/31 09:07:56;;;;;;;4.32;3.40;;;9.00;99.90;;;;;;5016488;28;20049;-74
2023/12/31 09:10:22;;;;;;;7.03;5.55;;;9.00;99.90;;;;;;5025170;28;20061;-73
2023/12/31 09:12:48;;;;;;;8.95;7.30;;;9.10;99.90;;;;;;5015768;28;20102;-74
2023/12/31 09:15:13;;;;;;;13.75;10.50;;;9.00;99.90;;;;;;5019081;28;20073;-74
2023/12/31 09:17:39;;;;;;;14.40;12.40;;;9.10;99.90;;;;;;5016417;28;20541;-74
2023/12/31 09:20:06;;;;;;;16.25;13.18;;;9.10;99.90;;;;;;5018587;28;20072;-74
2023/12/31 09:22:35;;;;;;;14.60;12.23;;;9.10;99.90;;;;;;5019601;28;20363;-74
2023/12/31 09:25:02;;;;;;;8.80;7.55;;;9.10;99.90;;;;;;5025062;28;20482;-74
2023/12/31 09:27:27;;;;;;;9.90;5.50;;;9.10;99.90;;;;;;5027601;28;20045;-74
2023/12/31 09:29:53;;;;;;;6.25;4.53;;;9.20;99.90;;;;;;5029161;28;20045;-74
2023/12/31 09:32:19;;;;;;;6.03;4.88;;;9.20;99.90;;;;;;5032126;28;20061;-74
2023/12/31 09:34:44;;;;;;;5.53;4.60;;;9.20;99.90;;;;;;5018076;28;20061;-74
2023/12/31 09:37:11;;;;;;;5.45;4.20;;;9.20;99.90;;;;;;5026266;28;20128;-74
2023/12/31 09:39:37;;;;;;;7.25;4.63;;;9.30;99.90;;;;;;5026384;28;20765;-74
2023/12/31 09:42:12;;;;;;;6.25;5.63;;;9.30;99.90;;;;;;5019179;28;20046;-74
2023/12/31 09:44:39;;;;;;;10.10;8.77;;;9.30;99.90;;;;;;5010006;28;20049;-74
2023/12/31 09:47:06;;;;;;;13.13;11.50;;;9.30;99.90;;;;;;5019498;28;20187;-74
2023/12/31 09:49:33;;;;;;;;;;;9.40;99.90;;;;;;5019001;28;20041;-74
2023/12/31 09:52:01;;;;;;;;;;;9.30;99.90;;;;;;5023702;28;19921;-74
2023/12/31 09:54:27;;;;;;;15.02;13.52;;;9.30;99.90;;;;;;5023207;28;20588;-74
2023/12/31 09:56:56;;;;;;;27.25;24.08;;;9.30;99.90;;;;;;5022659;28;20453;-74
2023/12/31 09:59:24;;;;;;;11.15;9.63;;;9.40;99.90;;;;;;5021672;28;20049;-74
2023/12/31 10:01:53;;;;;;;19.45;17.55;;;9.40;99.90;;;;;;5038240;28;20524;-73
2023/12/31 10:04:20;;;;;;;13.05;10.90;;;9.50;99.90;;;;;;5027245;28;20069;-73
2023/12/31 10:06:46;;;;;;;9.75;6.93;;;9.50;99.90;;;;;;5012994;28;20151;-74
2023/12/31 10:09:17;;;;;;;9.05;6.30;;;9.50;99.90;;;;;;5014998;28;20503;-74
2023/12/31 10:11:43;;;;;;;32.58;29.65;;;9.60;99.90;;;;;;5015270;28;20504;-74
2023/12/31 10:14:09;;;;;;;21.60;19.70;;;9.60;99.90;;;;;;5017448;28;20760;-75
2023/12/31 10:16:37;;;;;;;20.73;18.83;;;9.60;99.90;;;;;;5014844;28;20044;-75
2023/12/31 10:19:03;;;;;;;;;;;9.60;99.90;;;;;;5020266;28;20049;-79
2023/12/31 10:21:29;;;;;;;9.53;8.60;;;9.60;99.90;;;;;;5026882;28;19929;-78
2023/12/31 10:23:54;;;;;;;10.35;9.13;;;9.60;99.90;;;;;;5030253;28;20061;-77
2023/12/31 10:26:20;;;;;;;9.90;8.50;;;9.60;99.90;;;;;;5029940;28;20033;-76
2023/12/31 10:28:46;;;;;;;7.13;6.22;;;9.60;99.90;;;;;;5038882;28;20067;-75
2023/12/31 10:31:11;;;;;;;9.38;7.90;;;9.70;99.90;;;;;;5041807;28;20148;-75
2023/12/31 10:33:38;;;;;;;6.88;5.75;;;9.70;99.90;;;;;;5031377;28;20037;-76
2023/12/31 10:36:07;;;;;;;8.98;5.72;;;9.70;99.90;;;;;;5046454;28;20088;-76
2023/12/31 10:38:47;;;;;;;14.77;12.23;;;9.80;99.90;;;;;;5027940;28;20038;-77
2023/12/31 10:41:25;;;;;;;13.70;11.52;;;9.90;99.90;;;;;;5027193;28;20046;-77
2023/12/31 10:43:52;;;;;;;15.23;13.63;;;9.90;99.90;;;;;;5029868;28;20072;-80
2023/12/31 10:46:19;;;;;;;14.15;12.52;;;10.00;99.90;;;;;;5022799;28;20045;-77
2023/12/31 10:49:01;;;;;;;16.42;14.55;;;10.00;99.90;;;;;;5040881;28;20061;-78
2023/12/31 10:51:27;;;;;;;16.52;12.10;;;10.10;99.90;;;;;;5020422;28;20065;-77
2023/12/31 10:54:05;;;;;;;22.63;18.20;;;10.10;99.90;;;;;;5040577;28;20484;-75
2023/12/31 10:56:32;;;;;;;42.78;32.58;;;10.10;99.90;;;;;;5023077;28;20160;-77
2023/12/31 10:58:58;;;;;;;34.00;28.45;;;10.20;99.90;;;;;;5045344;28;20053;-77
2023/12/31 11:01:27;;;;;;;23.07;20.60;;;10.10;99.90;;;;;;5030584;28;20049;-76
2023/12/31 11:03:55;;;;;;;24.52;19.20;;;10.10;99.90;;;;;;5037683;28;20300;-73
2023/12/31 11:06:22;;;;;;;26.40;21.23;;;10.10;99.90;;;;;;5031286;28;20033;-77
2023/12/31 11:08:49;;;;;;;15.98;12.23;;;10.10;99.90;;;;;;5029133;28;20052;-78
2023/12/31 11:11:16;;;;;;;10.02;7.43;;;10.00;99.90;;;;;;5036180;28;20045;-79
2023/12/31 11:13:53;;;;;;;9.20;7.15;;;10.00;99.90;;;;;;5043172;28;20136;-80
2023/12/31 11:16:46;;;;;;;6.43;4.88;;;10.10;99.90;;;;;;5034456;28;20033;-80
2023/12/31 11:19:32;;;;;;;6.28;5.45;;;10.00;99.90;;;;;;5025768;28;20053;-79
2023/12/31 11:22:21;;;;;;;7.85;6.05;;;10.00;99.90;;;;;;5028591;28;20075;-77
2023/12/31 11:24:47;;;;;;;5.82;4.75;;;10.00;99.90;;;;;;5020377;28;20397;-81
2023/12/31 11:27:17;;;;;;;7.38;4.95;;;10.00;99.90;;;;;;5062702;28;20488;-79
2023/12/31 11:29:49;;;;;;;6.32;5.10;;;10.00;99.90;;;;;;5045746;28;20135;-78
2023/12/31 11:32:19;;;;;;;6.93;4.22;;;10.00;99.90;;;;;;5023693;28;20053;-79
2023/12/31 11:34:51;;;;;;;6.22;4.47;;;10.00;99.90;;;;;;5017925;28;20046;-76
2023/12/31 11:37:17;;;;;;;5.88;3.63;;;9.90;99.90;;;;;;5011736;28;20137;-77
2023/12/31 11:39:47;;;;;;;73.60;66.18;;;10.00;99.90;;;;;;5025951;28;20053;-76
2023/12/31 11:42:13;;;;;;;3.47;2.88;;;9.90;99.90;;;;;;5040448;28;20056;-75
2023/12/31 11:44:43;;;;;;;3.88;2.47;;;9.90;99.90;;;;;;5032538;28;20090;-77
2023/12/31 11:47:20;;;;;;;5.70;3.30;;;9.90;99.90;;;;;;5035273;28;20053;-77
2023/12/31 11:49:46;;;;;;;4.45;3.33;;;9.80;99.90;;;;;;5039251;28;20076;-80
2023/12/31 11:52:12;;;;;;;3.45;3.13;;;9.80;99.90;;;;;;5027408;28;20130;-78
2023/12/31 11:54:39;;;;;;;4.07;3.10;;;9.80;99.90;;;;;;5010392;28;20105;-79
2023/12/31 11:57:08;;;;;;;4.35;3.15;;;9.90;99.90;;;;;;5021835;28;20124;-80
2023/12/31 11:59:35;;;;;;;4.97;2.95;;;9.90;99.90;;;;;;5045066;28;20160;-75
2023/12/31 12:02:03;;;;;;;3.58;2.67;;;9.90;99.90;;;;;;5029828;28;20053;-78
2023/12/31 12:04:29;;;;;;;;;;;9.90;99.90;;;;;;5018371;28;20136;-80
2023/12/31 12:06:55;;;;;;;15.57;12.10;;;9.90;99.90;;;;;;5058626;28;20032;-79
2023/12/31 12:09:27;;;;;;;8.02;6.50;;;9.90;99.90;;;;;;5035748;28;20529;-81
2023/12/31 12:11:58;;;;;;;6.60;4.43;;;10.00;99.90;;;;;;5052155;28;20084;-83
2023/12/31 12:14:24;;;;;;;4.88;3.22;;;10.00;99.90;;;;;;5044858;28;20755;-79
2023/12/31 12:16:50;;;;;;;4.90;3.10;;;10.00;99.90;;;;;;5030731;28;20048;-78
2023/12/31 12:19:16;;;;;;;4.05;2.65;;;10.10;99.90;;;;;;5034642;28;20042;-80
2023/12/31 12:21:41;;;;;;;3.20;2.03;;;10.10;99.90;;;;;;5027861;28;20053;-78
2023/12/31 12:24:09;;;;;;;3.75;2.63;;;10.10;99.90;;;;;;5026225;28;20370;-80
2023/12/31 12:26:38;;;;;;;3.30;2.50;;;10.10;99.90;;;;;;5033700;28;20064;-78
2023/12/31 12:29:04;;;;;;;3.10;2.20;;;10.20;99.90;;;;;;5030067;28;20049;-74
2023/12/31 12:31:36;;;;;;;3.63;2.00;;;10.20;99.90;;;;;;5027043;28;20041;-75
2023/12/31 12:34:07;;;;;;;3.92;2.30;;;10.20;99.90;;;;;;5035951;28;20052;-77
2023/12/31 12:36:33;;;;;;;3.00;2.10;;;10.20;99.90;;;;;;5060846;28;20045;-76
2023/12/31 12:39:05;;;;;;;2.65;2.38;;;10.30;99.90;;;;;;5028951;28;20393;-76
2023/12/31 12:41:33;;;;;;;2.92;1.80;;;10.30;99.90;;;;;;5023474;28;20045;-74
2023/12/31 12:44:09;;;;;;;3.75;1.70;;;10.30;99.90;;;;;;5060593;28;20053;-77
2023/12/31 12:46:35;;;;;;;3.03;1.67;;;10.40;99.90;;;;;;5052189;28;20508;-79
2023/12/31 12:49:03;;;;;;;2.67;1.67;;;10.40;99.90;;;;;;5026846;28;20058;-76
2023/12/31 12:51:29;;;;;;;4.15;2.13;;;10.40;99.90;;;;;;5027761;28;20652;-80